Aérodrome :
LOGIN :

S'inscrire | Disclaimer

   EN    FR    IT 

 










Légende :    VFR   VFR Marginal   IFR   IFR Intensif   IFR Très Intensif
Visi : 
Plafond : 
>= 8 km
>= 3000ft
5 à 8 km
1000 à 3000 ft
1500m à 5 km
500 à 1000 ft
800 à 1500m
200 à 500 ft
< 800m
< 200 ft
Symboles :   Orages  Brouillard  Fortes neiges  Fortes précipitations  Vent > 20 kt
SIGMETs :   Divers  Orages  Givrage  Turbulence  Onde Orograph.  Cendres Volcan.







- Altitude de l'aérodrome : 416 ft
- Code IATA : OVD


LEAS - Asturias

DERNIER METAR :
  • 201900Z 28003KT 9999 FEW020 BKN050 08/07 Q1021 TEMPO 3000 SHRA BKN014 BKN020TCU

METARs EXPIRÉS :
  • 201830Z 29008KT 260V320 7000 -RA SCT015TCU BKN050 09/07 Q1021 RESHRA TEMPO 3000 SHRA BKN014 BKN020TCU
  • 201812Z 31007KT 280V010 6000 SHRA SCT015TCU BKN042 09/07 Q1021 NOSIG
  • 201800Z 32007KT 270V010 9999 FEW015TCU BKN045 10/07 Q1021 TEMPO 3000 SHRA BKN014 BKN020TCU
  • 201730Z 30005KT 260V340 9999 FEW015TCU BKN045 10/08 Q1020 TEMPO 3000 SHRA BKN014 BKN020TCU
  • 201700Z 31004KT 260V350 9999 FEW015TCU BKN045 10/07 Q1020 TEMPO 3000 SHRA BKN014 BKN020TCU
  • 201630Z 32007KT 280V010 9999 FEW015TCU BKN042 10/08 Q1020 TEMPO 3000 SHRA BKN014 BKN020TCU

TAF TAF LEAS
Valide du 20 à 15h jusqu'au 21 à 15h UTC


201400Z 2015/2115 31009KT 9999 SCT015 SCT040 TX11/2114Z TN05/2107Z
TEMPO 2015/2018 32015G25KT
TEMPO 2015/2110 3000 SHRA BKN010 SCT025TCU
PROB30
TEMPO 2015/2109 3000 TS SHRAGR BKN010 SCT025CB
Pas de NOTAMs connus pour ce terrain.
1 SIGMET publié pour la FIR Madrid (LECM) :
 
Onde orographique forte
LECM SIGMET 2 VALID 201613/202000 LEVA
LECM MADRID FIR/UIR SEV MTW OBS AT 1613Z WI N3704 W00503 - N3632 W00430 - N3716 W00142 - N3838 W00240 - N3704 W00503 SFC/FL260 STNR NC=



MET'MAP, la Météo Aéronautique d'un coup d'oeil ! - Copyright ORBIFLY Décembre 2007 - Disclaimer

ORBIFLY MET'MAP TEAM :

Programmation & Développement : Alexandra Zaïnal
Conception & Développement : Baudouin d'Aumeries
Co-Programmation & Développement : Marc-Olivier Méhu
Soutien technique & logistique : Manuel Goepfert

Contact : metmap@orbifly.com




SOURCES & CREDITS :

   NOAA